• Join FlightAware (Why Join?)
  • Login
  • US Flag 
10:32PM EDT


 

Airport Tracker/Info


-or-


 

Live Flight TrackerFlight Track Log ✈ DAL1979 ✈ 15-May-2013 ✈ KMCO - KMSP

Flight Track Log - Related Links

Times and Time Zones

All times are in EDT time to prevent confusion due to time zone crossing. See the DAL1979 flight status page for this flight to view local times or setup timezone preferences in your user account.

Time Position Orientation Groundspeed Altitude Reporting Facility
EDT Latitude Longitude Course Direction KTS MPH feet Rate Location/Type
03:55PM 28.4167 -81.3000 270° West 160 184 500  Level Orlando TRACON
03:57PM 28.3333 -81.3500 208° Southwest 267 307 3,700 2,460 Climbing Orlando TRACON
03:58PM 28.4167 -81.6992 270° West  Level FlightAware Approximate
03:59PM 28.4167 -81.8322 270° West  Level FlightAware Approximate
03:59PM 28.3300 -81.4942 269° West 283 326 8,600  Level Jacksonville Center
04:00PM 28.4167 -81.9653 270° West  Level FlightAware Approximate
04:00PM 28.3292 -81.5886 269° West 295 339 11,100  Level Jacksonville Center
04:01PM 28.4167 -82.0983 270° West  Level FlightAware Approximate
04:01PM 28.3322 -81.7017 272° West 322 371 12,600  Level Jacksonville Center
04:02PM 28.3333 -81.8242 271° West 362 417 14,900 2,280 Climbing Jacksonville Center
04:03PM 28.3342 -81.9517 270° West 391 450 17,200 2,040 Climbing Jacksonville Center
04:04PM 28.3372 -82.0767 272° West 401 461 19,100 1,920 Climbing Jacksonville Center
04:05PM 28.3358 -82.2111 269° West 414 476 21,100 2,520 Climbing Jacksonville Center
04:06PM 28.3367 -82.3408 270° West 421 484 24,100 2,400 Climbing Jacksonville Center
04:07PM 28.3369 -82.4658 270° West 410 472 25,900 900 Climbing Jacksonville Center
04:08PM 28.3792 -82.5811 293° West 392 451 26,000 540 Climbing Jacksonville Center
04:09PM 28.4794 -82.6636 324° Northwest 392 451 27,100 1,440 Climbing Jacksonville Center
04:10PM 28.5839 -82.7411 327° Northwest 414 476 28,900 1,800 Climbing Jacksonville Center
04:11PM 28.6842 -82.8169 326° Northwest 434 499 30,700 1,500 Climbing Jacksonville Center
04:12PM 28.7844 -82.8903 327° Northwest 434 499 32,000 600 Climbing Jacksonville Center
04:13PM 28.8803 -82.9661 325° Northwest 429 494 32,000  Level Jacksonville Center
04:14PM 28.9783 -83.0422 326° Northwest 424 488 32,000  Level Jacksonville Center
04:15PM 29.0783 -83.1206 326° Northwest 424 488 32,000  Level Jacksonville Center
04:16PM 29.1806 -83.1994 326° Northwest 430 495 32,000  Level Jacksonville Center
04:17PM 29.2806 -83.2783 325° Northwest 435 501 32,000  Level Jacksonville Center
04:18PM 29.3806 -83.3550 326° Northwest 435 501 32,000  Level Jacksonville Center
04:19PM 29.4825 -83.4342 326° Northwest 435 501 32,000  Level Jacksonville Center
04:20PM 29.5928 -83.5208 326° Northwest 435 501 32,000  Level Jacksonville Center
04:21PM 29.7008 -83.5883 332° Northwest 440 506 32,000  Level Jacksonville Center
04:22PM 29.8111 -83.6489 335° Northwest 435 501 32,000  Level Jacksonville Center
04:23PM 29.9194 -83.7097 334° Northwest 435 501 32,000  Level Jacksonville Center
04:24PM 30.0297 -83.7706 334° Northwest 435 501 32,000  Level Jacksonville Center
04:25PM 30.1356 -83.8342 333° Northwest 435 501 32,000  Level Jacksonville Center
04:26PM 30.2439 -83.8953 334° Northwest 430 495 32,000  Level Jacksonville Center
04:27PM 30.3519 -83.9567 334° Northwest 430 495 32,000  Level Jacksonville Center
04:28PM 30.4600 -84.0203 333° Northwest 430 495 32,000  Level Jacksonville Center
04:29PM 30.5472 -84.0697 334° Northwest 430 495 32,000  Level Jacksonville Center
04:30PM 30.6633 -84.1389 333° Northwest 430 495 32,000  Level Jacksonville Center
04:31PM 30.7714 -84.2006 334° Northwest 430 495 32,000  Level Jacksonville Center
04:32PM 30.8772 -84.2625 333° Northwest 430 495 32,000  Level Jacksonville Center
04:33PM 30.9831 -84.3272 332° Northwest 430 495 32,000  Level Jacksonville Center
04:34PM 31.0908 -84.3894 334° Northwest 430 495 32,000  Level Jacksonville Center
04:35PM 31.1986 -84.4519 334° Northwest 430 495 32,000  Level Jacksonville Center
04:36PM 31.3042 -84.5169 332° Northwest 430 495 32,000  Level Jacksonville Center
04:38PM 31.5447 -84.6628 333° Northwest 438 504 32,000  Level Atlanta Center
04:39PM 31.6508 -84.7244 334° Northwest 433 498 32,000  Level Atlanta Center
04:40PM 31.7589 -84.7911 332° Northwest 428 493 32,000  Level Atlanta Center
04:41PM 31.8672 -84.8531 334° Northwest 428 493 32,000  Level Atlanta Center
04:42PM 31.9711 -84.9178 332° Northwest 428 493 32,000  Level Atlanta Center
04:43PM 32.0769 -84.9850 332° Northwest 428 493 32,000  Level Atlanta Center
04:44PM 32.1869 -85.0500 333° Northwest 433 498 32,000  Level Atlanta Center
04:45PM 32.3056 -85.1153 335° Northwest 421 484 32,000  Level Atlanta Center
04:46PM 32.4133 -85.1806 333° Northwest 428 493 32,000  Level Atlanta Center
04:47PM 32.5192 -85.2433 333° Northwest 428 493 32,000  Level Atlanta Center
04:48PM 32.6250 -85.3089 332° Northwest 428 493 32,000  Level Atlanta Center
04:49PM 32.7308 -85.3747 332° Northwest 428 493 32,000  Level Atlanta Center
04:50PM 32.8386 -85.4406 333° Northwest 429 494 32,000  Level Atlanta Center
04:51PM 32.9464 -85.5067 333° Northwest 429 494 32,000  Level Atlanta Center
04:52PM 33.0542 -85.5778 331° Northwest 429 494 32,000  Level Atlanta Center
04:53PM 33.1578 -85.6392 334° Northwest 424 488 32,000  Level Atlanta Center
04:54PM 33.2633 -85.7008 334° Northwest 425 489 32,000 420 Level Atlanta Center
04:55PM 33.3708 -85.7775 329° Northwest 430 495 32,900 960 Climbing Atlanta Center
04:56PM 33.4639 -85.8292 335° Northwest 423 487 34,000 1,140 Climbing Atlanta Center
04:57PM 33.5717 -85.8961 333° Northwest 423 487 35,200 960 Climbing Atlanta Center
04:58PM 33.6811 -85.9686 331° Northwest 418 481 36,000 360 Climbing Atlanta Center
04:59PM 33.7844 -86.0333 333° Northwest 418 481 36,000  Level Atlanta Center
05:00PM 33.8897 -86.0983 333° Northwest 413 475 36,000  Level Atlanta Center
05:01PM 33.9908 -86.1658 331° Northwest 413 475 36,000  Level Atlanta Center
05:02PM 34.0983 -86.2339 332° Northwest 418 481 36,000  Level Atlanta Center
05:03PM 34.2036 -86.2994 333° Northwest 418 481 36,000  Level Atlanta Center
05:04PM 34.3086 -86.3650 333° Northwest 418 481 36,000  Level Atlanta Center
05:05PM 34.4117 -86.4333 331° Northwest 418 481 36,000  Level Atlanta Center
05:06PM 34.5147 -86.5017 331° Northwest 418 481 36,000  Level Atlanta Center
05:07PM 34.6197 -86.5706 332° Northwest 423 487 36,000  Level Atlanta Center
05:08PM 34.7228 -86.6367 332° Northwest 423 487 36,000  Level Atlanta Center
05:09PM 34.8278 -86.7033 332° Northwest 423 487 36,000  Level Atlanta Center
05:10PM 34.9306 -86.7725 331° Northwest 423 487 36,000  Level Atlanta Center
05:15PM 35.4606 -87.1192 332° Northwest 427 491 36,000  Level Kansas City Center
05:16PM 35.5550 -87.1875 330° Northwest 425 489 36,000  Level Memphis Center
05:17PM 35.6592 -87.2603 330° Northwest 425 489 36,000  Level Memphis Center
05:18PM 35.7608 -87.3281 332° Northwest 420 483 36,100 660 Climbing Memphis Center
05:19PM 35.8519 -87.3886 332° Northwest 420 483 37,400 900 Climbing Memphis Center
05:20PM 35.9514 -87.4544 332° Northwest 414 476 38,000 300 Climbing Memphis Center
05:21PM 36.0489 -87.5203 331° Northwest 408 470 38,000  Level Memphis Center
05:22PM 36.1483 -87.5861 332° Northwest 408 470 38,000  Level Memphis Center
05:23PM 36.2583 -87.6597 332° Northwest 408 470 38,000  Level Memphis Center
05:24PM 36.3578 -87.7286 331° Northwest 408 470 38,000  Level Memphis Center
05:25PM 36.4594 -87.7947 332° Northwest 408 470 38,000 420 Level Memphis Center
05:26PM 36.5586 -87.8639 331° Northwest 408 470 38,900 900 Climbing Memphis Center
05:27PM 36.6539 -87.9308 331° Northwest 408 470 39,900 540 Climbing Memphis Center
05:28PM 36.7489 -87.9953 331° Northwest 403 464 40,000  Climbing Memphis Center
05:29PM 36.8461 -88.0625 331° Northwest 403 464 40,000  Level Memphis Center
05:30PM 36.9347 -88.1222 332° Northwest 403 464 40,000  Level Memphis Center
05:31PM 37.0317 -88.1897 331° Northwest 403 464 40,000  Level Memphis Center
05:32PM 37.1328 -88.2572 332° Northwest 403 464 40,000  Level Memphis Center
05:34PM 37.3014 -88.3761 331° Northwest 412 474 40,000  Level Kansas City Center
05:35PM 37.4011 -88.4467 331° Northwest 413 475 40,000  Level Kansas City Center
05:36PM 37.4994 -88.5164 331° Northwest 410 472 40,000  Level Kansas City Center
05:37PM 37.5903 -88.5803 331° Northwest 405 466 40,000  Level Kansas City Center
05:38PM 37.7075 -88.6631 331° Northwest 401 461 40,000  Level Kansas City Center
05:39PM 37.8044 -88.7317 331° Northwest 398 458 40,000  Level Kansas City Center
05:40PM 37.8983 -88.7975 331° Northwest 401 461 40,000  Level Kansas City Center
05:41PM 37.9942 -88.8678 330° Northwest 400 460 40,000  Level Kansas City Center
05:42PM 38.0919 -88.9372 331° Northwest 402 463 40,000  Level Kansas City Center
05:43PM 38.2108 -89.0222 331° Northwest 405 466 40,000  Level Kansas City Center
05:44PM 38.3086 -89.0939 330° Northwest 406 467 40,000  Level Kansas City Center
05:45PM 38.4153 -89.1722 330° Northwest 410 472 40,000  Level Kansas City Center
05:46PM 38.5144 -89.2433 331° Northwest 410 472 40,000  Level Kansas City Center
05:47PM 38.6225 -89.3217 330° Northwest 415 478 40,000  Level Kansas City Center
05:48PM 38.7239 -89.3950 331° Northwest 419 482 40,000  Level Kansas City Center
05:49PM 38.8325 -89.4753 330° Northwest 421 484 40,000  Level Kansas City Center
05:50PM 38.9342 -89.5503 330° Northwest 422 486 40,000  Level Kansas City Center
05:51PM 39.0442 -89.6325 330° Northwest 425 489 40,000  Level Kansas City Center
05:52PM 39.1464 -89.7081 330° Northwest 425 489 40,000  Level Kansas City Center
05:53PM 39.2331 -89.7714 330° Northwest 420 483 40,000  Level Kansas City Center
05:54PM 39.3564 -89.8633 330° Northwest 427 491 40,000  Level Kansas City Center
05:55PM 39.4592 -89.9400 330° Northwest 429 494 40,000  Level Kansas City Center
05:56PM 39.5619 -90.0175 330° Northwest 429 494 40,000  Level Kansas City Center
05:57PM 39.6656 -90.0956 330° Northwest 431 496 40,000  Level Kansas City Center
05:58PM 39.7822 -90.1867 329° Northwest 430 495 40,000  Level Kansas City Center
05:59PM 39.8867 -90.2661 330° Northwest 432 497 40,000  Level Kansas City Center
06:00PM 39.9286 -90.2975 330° Northwest 433 498 40,000  Level Chicago Center
06:01PM 40.0322 -90.3775 329° Northwest 432 497 40,000  Level Chicago Center
06:01PM 40.0958 -90.4278 329° Northwest 435 501 40,000  Level Kansas City Center
06:02PM 40.1367 -90.4575 331° Northwest 433 498 40,000  Level Chicago Center
06:03PM 40.2417 -90.5397 329° Northwest 437 503 40,000  Level Chicago Center
06:04PM 40.3675 -90.6367 330° Northwest 436 502 40,000  Level Chicago Center
06:05PM 40.4728 -90.7169 330° Northwest 434 499 40,000  Level Chicago Center
06:06PM 40.5775 -90.7997 329° Northwest 437 503 40,000 -60 Level Chicago Center
06:07PM 40.6839 -90.8822 330° Northwest 440 506 39,900  Descending Chicago Center
06:08PM 40.7900 -90.9647 330° Northwest 441 507 40,000  Climbing Chicago Center
06:09PM 40.8942 -91.0481 329° Northwest 438 504 40,000  Level Chicago Center
06:10PM 40.9997 -91.1303 330° Northwest 439 505 40,000  Level Chicago Center
06:11PM 41.1219 -91.2278 329° Northwest 429 494 40,000  Level Chicago Center
06:12PM 41.2244 -91.3086 329° Northwest 427 491 40,000  Level Chicago Center
06:13PM 41.3217 -91.3875 329° Northwest 424 488 40,000  Level Chicago Center
06:14PM 41.4211 -91.4667 329° Northwest 421 484 40,000  Level Chicago Center
06:15PM 41.5197 -91.5453 329° Northwest 416 479 40,000  Level Chicago Center
06:16PM 41.6372 -91.6411 329° Northwest 416 479 40,000  Level Chicago Center
06:17PM 41.7356 -91.7189 329° Northwest 413 475 40,000  Level Chicago Center
06:18PM 41.8344 -91.8011 328° Northwest 419 482 40,000  Level Chicago Center
06:19PM 41.9344 -91.8839 328° Northwest 423 487 40,000  Level Chicago Center
06:20PM 42.0353 -91.9647 329° Northwest 425 489 40,000 -360 Level Chicago Center
06:22PM 42.1581 -92.0683 328° Northwest 432 497 39,300 -1,020 Descending Chicago Center
06:23PM 42.2586 -92.1511 329° Northwest 427 491 38,000 -1,200 Descending Chicago Center
06:23PM 42.3411 -92.2197 328° Northwest 430 495 37,200 -1,020 Descending Minneapolis Center
06:24PM 42.4444 -92.3069 328° Northwest 435 501 36,200 -960 Descending Minneapolis Center
06:25PM 42.5483 -92.3939 328° Northwest 438 504 35,300 -780 Descending Minneapolis Center
06:26PM 42.6481 -92.4850 326° Northwest 436 502 34,600 -660 Descending Minneapolis Center
06:27PM 42.7472 -92.5739 327° Northwest 430 495 34,000 -300 Descending Minneapolis Center
06:28PM 42.8464 -92.6661 326° Northwest 432 497 34,000  Level Minneapolis Center
06:30PM 42.9703 -92.7656 330° Northwest 436 502 34,000 -420 Level Minneapolis Center
06:31PM 43.0864 -92.8206 341° North 440 506 33,200 -1,020 Descending Minneapolis Center
06:32PM 43.2033 -92.8767 341° North 446 513 32,000 -1,260 Descending Minneapolis Center
06:33PM 43.3181 -92.9311 341° North 441 507 30,700 -2,520 Descending Minneapolis Center
06:34PM 43.4328 -92.9875 340° North 441 507 26,900 -3,240 Descending Minneapolis Center
06:35PM 43.5767 -93.0372 346° North 447 514 23,400 -2,160 Descending Minneapolis Center
06:36PM 43.7164 -93.0728 350° North 433 498 22,000 -2,640 Descending Minneapolis Center
06:37PM 43.8422 -93.1069 349° North 414 476 17,900 -4,080 Descending Minneapolis Center
06:38PM 43.9472 -93.1386 348° North 392 451 13,600 -3,420 Descending Minneapolis Center
06:39PM 44.0461 -93.1681 348° North 369 425 10,900 -1,800 Descending Minneapolis Center
06:40PM 44.1267 -93.1914 348° North 292 336 10,000 -480 Descending Minneapolis Center
06:41PM 44.1994 -93.2133 348° North 269 310 10,000  Level Minneapolis Center
06:42PM 44.2758 -93.2186 357° North 278 320 10,000  Level Minneapolis Center
06:43PM 44.3525 -93.2100 North 277 319 10,000 -120 Level Minneapolis Center
06:44PM 44.4381 -93.1603 23° Northeast 282 325 9,800 -540 Descending Minneapolis Center
06:45PM 44.5017 -93.1428 11° North 237 273 8,900 -960 Descending Minneapolis Center
06:46PM 44.5564 -93.1564 350° North 199 229 7,900 -1,080 Descending Minneapolis Center
06:47PM 44.5989 -93.1681 349° North 160 184 6,700 -1,500 Descending Minneapolis Center
06:48PM 44.6539 -93.1822 350° North 167 192 4,900 -1,320 Descending Minneapolis Center
06:49PM 44.7028 -93.1944 350° North 178 205 4,000 -900 Descending Minneapolis Center